Time;durP1;ratioP1;P1;durP2;ratioP2;P2;SDS_P1;SDS_P2;PMS_P1;PMS_P2;Temp;Humidity;BMP_temperature;BMP_pressure;BME280_temperature;BME280_humidity;BME280_pressure;Samples;Min_cycle;Max_cycle;Signal;HPM_P1;HPM_P2
2024/01/16 00:00:25;;;;;;;4.85;2.60;;;0.40;99.90;;;;;;6196928;23;20246;-92
2024/01/16 00:03:26;;;;;;;7.22;2.70;;;0.40;99.90;;;;;;6195608;23;20171;-92
2024/01/16 00:06:34;;;;;;;4.88;2.42;;;0.30;1.00;;;;;;6192641;23;20187;-92
2024/01/16 00:09:22;;;;;;;4.85;2.80;;;0.20;77.10;;;;;;6188278;23;20182;-92
2024/01/16 00:12:23;;;;;;;4.38;2.58;;;0.50;99.90;;;;;;6191485;23;20183;-92
2024/01/16 00:18:32;;;;;;;4.40;2.55;;;-0.10;1.00;;;;;;6192946;23;20179;-92
2024/01/16 00:21:30;;;;;;;6.82;2.90;;;-0.20;1.00;;;;;;6205922;23;20174;-91
2024/01/16 00:24:28;;;;;;;7.30;2.78;;;-0.30;1.00;;;;;;6206020;23;20171;-92
2024/01/16 00:31:08;;;;;;;3.22;2.47;;;-0.30;99.90;;;;;;6208841;23;20176;-92
2024/01/16 00:34:26;;;;;;;3.20;2.00;;;0.40;1.00;;;;;;6211965;23;20160;-91
2024/01/16 00:37:39;;;;;;;;;;;;;;;;;;;;;
2024/01/16 00:44:10;;;;;;;6.15;2.33;;;0.30;1.00;;;;;;6193182;23;20176;-91
2024/01/16 00:46:56;;;;;;;3.80;3.50;;;-0.30;20.50;;;;;;6187548;23;20206;-91
2024/01/16 00:49:41;;;;;;;4.45;2.78;;;-0.30;99.90;;;;;;6199426;23;20176;-91
2024/01/16 00:52:36;;;;;;;3.10;2.72;;;-0.40;99.90;;;;;;6198187;23;20198;-91
2024/01/16 00:55:09;;;;;;;5.78;3.60;;;-0.40;1.00;;;;;;6192904;23;20238;-91
2024/01/16 01:04:21;;;;;;;3.90;3.60;;;-0.60;1.00;;;;;;6193300;23;20214;-92
2024/01/16 01:07:04;;;;;;;;;;;;;;;;;;;;;
2024/01/16 01:09:44;;;;;;;3.70;2.00;;;-0.70;1.00;;;;;;6192205;23;20215;-91
2024/01/16 01:12:21;;;;;;;2.35;2.03;;;-0.60;1.00;;;;;;6202828;23;20167;-91
2024/01/16 01:15:07;;;;;;;2.72;2.22;;;-0.70;1.00;;;;;;6214851;23;20152;-90
2024/01/16 01:21:35;;;;;;;1.48;1.38;;;-0.90;1.00;;;;;;6178230;23;20175;-93
2024/01/16 01:24:14;;;;;;;2.17;1.55;;;-1.00;1.00;;;;;;6137839;23;20173;-91
2024/01/16 01:26:50;;;;;;;2.10;1.40;;;-1.10;1.00;;;;;;6192721;23;20191;-92
2024/01/16 01:29:40;;;;;;;2.75;1.52;;;-1.20;1.00;;;;;;6193692;23;20175;-91
2024/01/16 01:32:15;;;;;;;0.70;0.70;;;-1.30;1.50;;;;;;6196023;23;20488;-91
2024/01/16 01:34:47;;;;;;;2.97;1.20;;;-1.30;26.80;;;;;;6212767;23;20215;-91
2024/01/16 01:37:16;;;;;;;1.65;1.30;;;-1.30;40.50;;;;;;6212875;23;20195;-91
2024/01/16 01:40:05;;;;;;;2.70;1.40;;;-1.30;73.40;;;;;;6195309;23;20258;-90
2024/01/16 01:46:37;;;;;;;;;;;;;;;;;;;;;
2024/01/16 01:49:20;;;;;;;1.42;1.33;;;-1.30;99.90;;;;;;5971226;23;20181;-91
2024/01/16 01:51:59;;;;;;;2.13;1.55;;;-1.40;99.90;;;;;;6188062;23;20211;-91
2024/01/16 01:54:43;;;;;;;2.53;1.60;;;-0.80;99.90;;;;;;6202238;23;20168;-90
2024/01/16 01:57:24;;;;;;;2.95;1.40;;;-1.30;93.70;;;;;;6212644;23;20195;-90
2024/01/16 02:00:07;;;;;;;1.40;1.30;;;-1.30;46.60;;;;;;6214265;23;20166;-91
2024/01/16 02:02:44;;;;;;;2.80;1.50;;;-1.30;34.90;;;;;;6213790;23;20191;-92
2024/01/16 02:05:16;;;;;;;1.73;1.63;;;-1.40;31.40;;;;;;6214236;23;20160;-91
2024/01/16 02:07:55;;;;;;;3.80;1.77;;;-1.40;39.90;;;;;;6214053;23;20236;-91
2024/01/16 02:10:30;;;;;;;1.55;1.45;;;-1.40;64.60;;;;;;6214387;23;20154;-91
2024/01/16 02:13:11;;;;;;;1.52;1.33;;;-1.30;55.90;;;;;;6214217;23;20199;-91
2024/01/16 02:15:43;;;;;;;1.45;1.35;;;-1.30;39.40;;;;;;6201648;23;20636;-91
2024/01/16 02:18:18;;;;;;;1.40;1.30;;;-1.30;36.40;;;;;;6196203;23;20180;-92
2024/01/16 02:20:51;;;;;;;1.58;1.35;;;-1.30;35.30;;;;;;6196478;23;20175;-91
2024/01/16 02:23:39;;;;;;;2.00;1.65;;;-1.30;30.40;;;;;;6199039;23;20171;-91
2024/01/16 02:26:12;;;;;;;1.63;1.30;;;-1.00;25.00;;;;;;6196318;23;20202;-91
2024/01/16 02:31:35;;;;;;;1.85;1.70;;;-1.00;15.60;;;;;;6193008;23;20167;-92
2024/01/16 02:34:18;;;;;;;1.63;1.52;;;-1.40;1.00;;;;;;6193625;23;20164;-91
2024/01/16 02:39:53;;;;;;;2.15;1.95;;;-0.80;1.00;;;;;;6192317;23;20184;-91
2024/01/16 02:42:28;;;;;;;2.42;1.45;;;-0.80;1.00;;;;;;6195335;23;20591;-91
2024/01/16 02:44:58;;;;;;;2.40;2.20;;;-1.20;1.00;;;;;;6195194;23;20497;-91
2024/01/16 02:47:34;;;;;;;1.80;1.70;;;-1.20;1.00;;;;;;6195469;23;20282;-91
2024/01/16 02:50:20;;;;;;;;;;;;;;;;;;;;;
2024/01/16 02:52:54;;;;;;;2.28;1.60;;;-1.20;1.00;;;;;;6213969;23;20212;-91
2024/01/16 02:55:32;;;;;;;6.13;2.05;;;-1.30;1.00;;;;;;6213796;23;20195;-91
2024/01/16 03:02:11;;;;;;;;;;;;;;;;;;;;;
2024/01/16 03:05:29;;;;;;;1.92;1.80;;;-1.40;1.00;;;;;;6201516;23;20160;-93
2024/01/16 03:10:58;;;;;;;2.20;2.00;;;-1.30;1.00;;;;;;6207493;23;20222;-90
2024/01/16 03:13:36;;;;;;;3.35;3.05;;;-1.30;1.00;;;;;;6211926;23;20508;-90
2024/01/16 03:16:22;;;;;;;5.63;3.22;;;-0.90;1.00;;;;;;6208102;23;20199;-91
2024/01/16 03:19:00;;;;;;;4.50;3.85;;;-1.30;1.00;;;;;;6213445;23;20175;-91
2024/01/16 03:35:19;;;;;;;6.40;4.60;;;-1.20;1.00;;;;;;6131067;23;20512;-91
2024/01/16 03:46:20;;;;;;;4.93;3.47;;;-1.20;1.00;;;;;;6138169;23;20193;-92
2024/01/16 03:49:26;;;;;;;10.57;3.72;;;-1.20;1.00;;;;;;6145508;23;20660;-92
2024/01/16 03:52:24;;;;;;;2.65;2.45;;;-1.20;1.00;;;;;;6135648;23;20184;-92
2024/01/16 03:58:19;;;;;;;5.75;2.58;;;-0.90;1.00;;;;;;6126355;23;20569;-92
2024/01/16 04:01:14;;;;;;;2.17;1.95;;;-1.10;1.00;;;;;;6136764;23;20173;-92
2024/01/16 04:04:22;;;;;;;3.45;2.58;;;-1.00;1.00;;;;;;6135989;23;20226;-92
2024/01/16 04:07:20;;;;;;;3.50;2.65;;;-0.90;1.00;;;;;;6135981;23;20193;-93
2024/01/16 04:09:51;;;;;;;6.65;3.75;;;-1.10;1.00;;;;;;6149750;23;20165;-92
2024/01/16 04:12:18;;;;;;;3.30;3.08;;;-1.00;1.00;;;;;;6119546;23;20189;-81
2024/01/16 04:14:45;;;;;;;3.20;2.45;;;-1.00;1.00;;;;;;6121424;23;20166;-82
2024/01/16 04:17:11;;;;;;;4.10;2.80;;;-1.00;1.00;;;;;;6121228;23;20209;-82
2024/01/16 04:19:39;;;;;;;3.38;1.90;;;-1.00;1.00;;;;;;6124045;23;20209;-82
2024/01/16 04:22:07;;;;;;;3.40;2.92;;;-1.00;1.00;;;;;;6153106;23;20196;-82
2024/01/16 04:24:34;;;;;;;5.18;2.75;;;-1.00;1.00;;;;;;6154433;23;20180;-81
2024/01/16 04:27:01;;;;;;;2.92;2.72;;;-1.10;1.00;;;;;;6150677;23;20180;-83
2024/01/16 04:29:27;;;;;;;3.70;2.28;;;-1.00;1.00;;;;;;6149412;23;20183;-82
2024/01/16 04:31:54;;;;;;;2.65;2.28;;;-1.00;1.00;;;;;;6141263;23;20257;-83
2024/01/16 04:34:21;;;;;;;4.00;2.50;;;-1.00;1.00;;;;;;6140345;23;20177;-83
2024/01/16 04:36:48;;;;;;;3.03;2.40;;;-1.00;1.00;;;;;;6153964;23;20191;-82
2024/01/16 04:39:17;;;;;;;3.55;2.42;;;-0.90;1.00;;;;;;6149308;23;20188;-83
2024/01/16 04:41:44;;;;;;;2.95;2.58;;;-1.00;1.00;;;;;;6140290;23;20224;-83
2024/01/16 04:44:11;;;;;;;2.58;2.38;;;-1.00;1.00;;;;;;6148676;23;20185;-83
2024/01/16 04:46:38;;;;;;;2.78;2.10;;;-1.00;1.00;;;;;;6149603;23;20506;-83
2024/01/16 04:49:05;;;;;;;2.90;2.65;;;-1.00;1.00;;;;;;6150021;23;20336;-82
2024/01/16 04:51:31;;;;;;;4.35;2.60;;;-1.00;1.00;;;;;;6146542;23;20201;-82
2024/01/16 04:53:58;;;;;;;3.42;2.35;;;-1.00;1.00;;;;;;6144272;23;20173;-84
2024/01/16 04:56:27;;;;;;;2.50;2.30;;;-1.00;1.00;;;;;;6138374;23;20193;-83
2024/01/16 04:58:53;;;;;;;4.20;2.50;;;-1.00;1.00;;;;;;6136701;23;20208;-84
2024/01/16 05:01:20;;;;;;;9.25;3.03;;;-1.10;1.00;;;;;;6134647;23;20201;-83
2024/01/16 05:03:47;;;;;;;3.03;2.33;;;-1.20;1.00;;;;;;6135120;23;20219;-84
2024/01/16 05:06:15;;;;;;;4.00;2.22;;;-1.20;1.00;;;;;;6140439;23;20184;-83
2024/01/16 05:08:42;;;;;;;2.72;2.47;;;-1.20;1.00;;;;;;6140610;23;20184;-83
2024/01/16 05:11:09;;;;;;;2.30;2.15;;;-1.20;1.00;;;;;;6135985;23;20209;-83
2024/01/16 05:13:37;;;;;;;4.72;2.85;;;-1.20;1.00;;;;;;6134240;23;20669;-83
2024/01/16 05:16:05;;;;;;;2.85;2.65;;;-1.10;1.00;;;;;;6134563;23;20176;-83
2024/01/16 05:18:33;;;;;;;3.05;2.53;;;-1.10;1.00;;;;;;6133817;23;20205;-83
2024/01/16 05:21:00;;;;;;;4.20;2.67;;;-1.20;1.00;;;;;;6134658;23;20221;-83
2024/01/16 05:23:27;;;;;;;5.10;2.80;;;-1.20;1.00;;;;;;6153586;23;20177;-83
2024/01/16 05:25:54;;;;;;;2.58;2.38;;;-1.20;1.00;;;;;;6149647;23;20180;-82
2024/01/16 05:28:20;;;;;;;6.97;2.95;;;-1.30;1.00;;;;;;6146732;23;20182;-83
2024/01/16 05:30:49;;;;;;;5.05;3.17;;;-1.30;1.00;;;;;;6138360;23;20261;-82
2024/01/16 05:33:15;;;;;;;3.72;2.65;;;-1.30;1.00;;;;;;6148057;23;20181;-82
2024/01/16 05:35:42;;;;;;;5.10;2.53;;;-1.30;1.00;;;;;;6146393;23;20208;-83
2024/01/16 05:38:12;;;;;;;5.40;2.95;;;-1.40;1.00;;;;;;6142985;23;20248;-82
2024/01/16 05:40:39;;;;;;;4.55;3.10;;;-1.40;1.00;;;;;;6135961;23;20679;-83
2024/01/16 05:43:05;;;;;;;5.32;2.92;;;-1.40;1.00;;;;;;6141847;23;20207;-84
2024/01/16 05:45:32;;;;;;;3.13;2.70;;;-1.50;1.00;;;;;;6150851;23;20181;-84
2024/01/16 05:48:01;;;;;;;4.60;2.95;;;-1.40;1.00;;;;;;6147997;23;20176;-81
2024/01/16 05:50:27;;;;;;;6.95;3.58;;;-1.50;1.00;;;;;;6135452;23;20264;-81
2024/01/16 05:52:54;;;;;;;3.97;3.20;;;-1.50;1.00;;;;;;6136806;23;20181;-83
2024/01/16 05:55:22;;;;;;;3.42;3.00;;;-1.60;1.00;;;;;;6134411;23;20181;-83
2024/01/16 05:57:49;;;;;;;5.65;3.30;;;-1.50;1.00;;;;;;6132825;23;20193;-84
2024/01/16 06:00:17;;;;;;;5.78;3.78;;;-1.60;1.00;;;;;;6133750;23;20221;-83
2024/01/16 06:02:44;;;;;;;6.78;3.45;;;-1.60;1.00;;;;;;6133865;23;20232;-83
2024/01/16 06:05:13;;;;;;;4.68;3.45;;;-1.60;1.00;;;;;;6134306;23;20205;-83
2024/01/16 06:07:40;;;;;;;9.95;3.45;;;-1.50;1.00;;;;;;6137978;23;20225;-83
2024/01/16 06:10:09;;;;;;;17.25;6.93;;;-1.50;1.00;;;;;;6151088;23;20274;-81
2024/01/16 06:12:36;;;;;;;5.75;3.65;;;-1.50;1.00;;;;;;6153554;23;20169;-82
2024/01/16 06:15:02;;;;;;;7.95;3.85;;;-1.50;1.00;;;;;;6141924;23;20177;-83
2024/01/16 06:17:29;;;;;;;9.40;3.50;;;-1.60;1.00;;;;;;6136859;23;20197;-84
2024/01/16 06:19:56;;;;;;;4.07;3.70;;;-1.50;1.00;;;;;;6136157;23;20620;-84
2024/01/16 06:22:25;;;;;;;7.07;3.88;;;-1.50;1.00;;;;;;6135325;23;20173;-84
2024/01/16 06:24:51;;;;;;;5.93;4.65;;;-1.60;1.00;;;;;;6145889;23;20205;-84
2024/01/16 06:27:19;;;;;;;5.38;4.20;;;-1.60;1.00;;;;;;6144175;23;20208;-84
2024/01/16 06:29:46;;;;;;;8.48;5.20;;;-1.70;1.00;;;;;;6136349;23;20242;-83
2024/01/16 06:32:13;;;;;;;6.30;4.50;;;-1.70;1.00;;;;;;6134629;23;20211;-85
2024/01/16 06:34:40;;;;;;;14.98;4.50;;;-1.70;1.00;;;;;;6136113;23;20205;-83
2024/01/16 06:37:10;;;;;;;8.60;4.60;;;-1.70;1.00;;;;;;6133629;23;20228;-83
2024/01/16 06:39:39;;;;;;;5.47;4.90;;;-1.70;1.00;;;;;;6136046;23;20181;-84
2024/01/16 06:42:06;;;;;;;8.80;4.90;;;-1.80;1.00;;;;;;6134530;23;20647;-84
2024/01/16 06:44:33;;;;;;;5.85;4.97;;;-1.80;1.00;;;;;;6134456;23;20216;-85
2024/01/16 06:47:00;;;;;;;8.45;6.78;;;-1.80;1.00;;;;;;6138355;23;20178;-84
2024/01/16 06:49:27;;;;;;;6.10;5.00;;;-1.70;1.00;;;;;;6138922;23;20188;-84
2024/01/16 06:51:54;;;;;;;9.35;4.80;;;-1.70;1.00;;;;;;6136123;23;20261;-84
2024/01/16 06:54:23;;;;;;;7.90;5.60;;;-1.70;1.00;;;;;;6134242;23;20188;-85
2024/01/16 06:56:51;;;;;;;6.75;5.60;;;-1.60;1.00;;;;;;6138235;23;20232;-84
2024/01/16 06:59:19;;;;;;;7.03;5.53;;;-1.60;1.00;;;;;;6137858;23;20200;-84
2024/01/16 07:01:46;;;;;;;9.75;6.25;;;-1.50;1.00;;;;;;6138233;23;20198;-85
2024/01/16 07:04:14;;;;;;;9.07;5.45;;;-1.50;1.00;;;;;;6136224;23;20200;-85
2024/01/16 07:06:41;;;;;;;7.63;4.65;;;-1.50;1.00;;;;;;6139817;23;20177;-84
2024/01/16 07:09:10;;;;;;;6.95;4.50;;;-1.50;1.00;;;;;;6142112;23;20256;-85
2024/01/16 07:11:38;;;;;;;9.88;5.80;;;-1.40;1.00;;;;;;6141873;23;20213;-84
2024/01/16 07:14:08;;;;;;;4.40;4.00;;;-1.50;1.00;;;;;;6141862;23;20187;-85
2024/01/16 07:16:35;;;;;;;6.20;5.55;;;-1.40;1.00;;;;;;6137980;23;20185;-84
2024/01/16 07:19:03;;;;;;;6.25;5.30;;;-1.40;1.00;;;;;;6149034;23;20231;-84
2024/01/16 07:21:29;;;;;;;9.35;6.32;;;-1.30;1.00;;;;;;6146862;23;20249;-87
2024/01/16 07:23:56;;;;;;;13.68;7.25;;;-1.30;1.00;;;;;;6141176;23;20181;-85
2024/01/16 07:26:23;;;;;;;16.13;12.48;;;-1.30;1.00;;;;;;6139421;23;20188;-83
2024/01/16 07:28:50;;;;;;;7.95;6.07;;;-1.40;1.00;;;;;;6138797;23;20200;-84
2024/01/16 07:31:20;;;;;;;9.57;7.50;;;-1.30;1.00;;;;;;6137423;23;20276;-83
2024/01/16 07:33:47;;;;;;;8.00;5.63;;;-1.30;1.00;;;;;;6138184;23;20237;-84
2024/01/16 07:36:14;;;;;;;5.22;4.72;;;-1.30;1.00;;;;;;6137523;23;20237;-84
2024/01/16 07:38:40;;;;;;;11.38;5.18;;;-1.20;1.00;;;;;;6136056;23;20269;-84
2024/01/16 07:41:07;;;;;;;12.17;9.67;;;-1.20;1.00;;;;;;6136315;23;20196;-83
2024/01/16 07:43:35;;;;;;;16.95;10.68;;;-1.20;1.00;;;;;;6149255;23;20404;-82
2024/01/16 07:46:02;;;;;;;15.23;10.32;;;-1.20;1.00;;;;;;6149255;23;20219;-82
2024/01/16 07:48:30;;;;;;;14.60;9.38;;;-1.20;1.00;;;;;;6142758;23;20177;-83
2024/01/16 07:50:57;;;;;;;17.00;11.65;;;-1.20;1.00;;;;;;6149127;23;20188;-82
2024/01/16 07:53:27;;;;;;;9.02;5.75;;;-1.20;1.00;;;;;;6135462;23;20635;-83
2024/01/16 07:55:54;;;;;;;8.85;5.80;;;-1.20;1.00;;;;;;6135183;23;20263;-83
2024/01/16 07:58:21;;;;;;;12.48;5.32;;;-1.20;1.00;;;;;;6143947;23;20216;-83
2024/01/16 08:00:48;;;;;;;5.13;4.60;;;-1.20;1.00;;;;;;6152050;23;20201;-82
2024/01/16 08:03:15;;;;;;;7.85;5.40;;;-1.20;1.00;;;;;;6152470;23;20177;-82
2024/01/16 08:05:43;;;;;;;7.68;5.20;;;-1.20;1.00;;;;;;6148023;23;20192;-82
2024/01/16 08:08:10;;;;;;;10.88;5.15;;;-1.10;1.00;;;;;;6141280;23;20177;-84
2024/01/16 08:10:37;;;;;;;13.50;4.80;;;-1.10;1.00;;;;;;6142982;23;20286;-83
2024/01/16 08:13:04;;;;;;;6.75;4.10;;;-1.00;1.00;;;;;;6144521;23;20192;-83
2024/01/16 08:15:31;;;;;;;14.38;5.82;;;-1.00;1.00;;;;;;6151879;23;20176;-83
2024/01/16 08:17:58;;;;;;;9.30;6.03;;;-1.10;1.00;;;;;;6148284;23;20208;-82
2024/01/16 08:20:25;;;;;;;8.77;5.40;;;-1.10;1.00;;;;;;6147822;23;20532;-83
2024/01/16 08:22:54;;;;;;;8.55;6.00;;;-1.00;1.00;;;;;;6139680;23;20211;-83
2024/01/16 08:25:21;;;;;;;6.78;5.30;;;-1.00;1.00;;;;;;6144778;23;20184;-83
2024/01/16 08:27:47;;;;;;;5.53;4.50;;;-0.80;1.00;;;;;;6143027;23;20177;-84
2024/01/16 08:30:15;;;;;;;5.63;4.78;;;-0.90;1.00;;;;;;6139566;23;20208;-84
2024/01/16 08:32:41;;;;;;;10.23;5.35;;;-0.80;1.00;;;;;;6141364;23;20181;-84
2024/01/16 08:35:09;;;;;;;14.20;4.75;;;-0.80;1.00;;;;;;6144817;23;20181;-85
2024/01/16 08:37:36;;;;;;;9.65;5.60;;;-0.80;1.00;;;;;;6140883;23;20197;-82
2024/01/16 08:40:06;;;;;;;8.45;5.88;;;-0.70;1.00;;;;;;6146175;23;20201;-83
2024/01/16 08:42:33;;;;;;;7.80;5.28;;;-0.70;1.00;;;;;;6148027;23;20188;-84
2024/01/16 08:45:00;;;;;;;14.32;4.80;;;-0.60;1.00;;;;;;6144504;23;20184;-84
2024/01/16 08:47:26;;;;;;;9.55;5.88;;;-0.50;1.00;;;;;;6145662;23;20177;-84
2024/01/16 08:49:53;;;;;;;9.38;6.18;;;-0.50;1.00;;;;;;6147409;23;20208;-83
2024/01/16 08:52:20;;;;;;;7.88;5.18;;;-0.50;1.00;;;;;;6146406;23;20181;-83
2024/01/16 08:54:49;;;;;;;10.48;6.50;;;-0.50;1.00;;;;;;6143993;23;20676;-84
2024/01/16 08:57:18;;;;;;;6.93;6.20;;;-0.50;1.00;;;;;;6145194;23;20197;-84
2024/01/16 08:59:45;;;;;;;9.90;5.85;;;-0.50;1.00;;;;;;6136671;23;20725;-84
2024/01/16 09:02:12;;;;;;;9.77;5.00;;;-0.40;1.00;;;;;;6135642;23;20256;-85
2024/01/16 09:04:39;;;;;;;6.75;5.68;;;-0.40;1.00;;;;;;6134228;23;20181;-83
2024/01/16 09:07:05;;;;;;;7.00;6.30;;;-0.40;1.00;;;;;;6132643;23;20188;-81
2024/01/16 09:09:32;;;;;;;9.77;6.60;;;-0.30;1.00;;;;;;6131544;23;20173;-83
2024/01/16 09:11:59;;;;;;;7.32;5.80;;;-0.30;1.00;;;;;;6134423;23;20211;-83
2024/01/16 09:14:27;;;;;;;10.18;6.85;;;-0.20;1.00;;;;;;6136159;23;20188;-82
2024/01/16 09:16:55;;;;;;;7.78;7.00;;;-0.20;1.00;;;;;;6136651;23;20183;-82
2024/01/16 09:19:21;;;;;;;8.50;6.05;;;-0.20;1.00;;;;;;6134519;23;20204;-82
2024/01/16 09:21:48;;;;;;;10.32;6.90;;;-0.10;1.00;;;;;;6134024;23;20289;-82
2024/01/16 09:24:15;;;;;;;9.75;6.78;;;-0.10;1.00;;;;;;6133947;23;20207;-82
2024/01/16 09:26:42;;;;;;;10.30;6.85;;;-0.20;1.00;;;;;;6132983;23;20177;-81
2024/01/16 09:29:11;;;;;;;9.52;6.35;;;-0.20;1.00;;;;;;6133368;23;20196;-81
2024/01/16 09:31:39;;;;;;;12.45;7.38;;;-0.20;1.00;;;;;;6135008;23;20224;-82
2024/01/16 09:34:06;;;;;;;10.15;7.45;;;-0.10;1.00;;;;;;6136115;23;20219;-82
2024/01/16 09:36:35;;;;;;;7.35;6.00;;;0.00;1.00;;;;;;6134570;23;20185;-82
2024/01/16 09:39:02;;;;;;;12.55;8.70;;;0.10;1.00;;;;;;6147252;23;20185;-82
2024/01/16 09:41:32;;;;;;;8.32;7.13;;;0.10;1.00;;;;;;6152457;23;20203;-81
2024/01/16 09:43:59;;;;;;;8.27;6.85;;;0.10;1.00;;;;;;6153074;23;20181;-81
2024/01/16 09:46:27;;;;;;;7.90;7.10;;;0.20;1.00;;;;;;6138402;23;20201;-82
2024/01/16 09:48:56;;;;;;;10.30;6.80;;;0.00;99.90;;;;;;6135519;23;20177;-82
2024/01/16 09:51:23;;;;;;;9.25;7.05;;;-0.10;1.00;;;;;;6134327;23;20205;-81
2024/01/16 09:53:51;;;;;;;9.27;7.35;;;-0.10;1.00;;;;;;6133969;23;20205;-81
2024/01/16 09:56:22;;;;;;;10.52;7.25;;;-0.10;1.00;;;;;;6141134;23;20586;-80
2024/01/16 09:58:55;;;;;;;10.93;7.88;;;0.00;1.00;;;;;;6146915;23;20644;-81
2024/01/16 10:01:24;;;;;;;9.77;6.55;;;0.00;1.00;;;;;;6146818;23;20233;-81
2024/01/16 10:03:51;;;;;;;9.55;7.70;;;0.00;1.00;;;;;;6142534;23;20212;-82
2024/01/16 10:06:22;;;;;;;13.48;8.00;;;0.00;1.00;;;;;;6136581;23;20263;-82
2024/01/16 10:08:49;;;;;;;10.43;7.82;;;0.10;1.00;;;;;;6138778;23;20172;-81
2024/01/16 10:11:16;;;;;;;12.48;6.72;;;0.30;1.00;;;;;;6148578;23;20236;-81
2024/01/16 10:13:45;;;;;;;8.68;7.13;;;0.20;1.00;;;;;;6147487;23;20185;-82
2024/01/16 10:16:12;;;;;;;9.75;7.55;;;0.30;1.00;;;;;;6140563;23;20180;-82
2024/01/16 10:18:38;;;;;;;10.38;7.60;;;0.50;1.00;;;;;;6150713;23;20192;-82
2024/01/16 10:21:07;;;;;;;9.50;7.18;;;0.50;1.00;;;;;;6151004;23;20191;-82
2024/01/16 10:23:36;;;;;;;11.40;7.57;;;0.50;1.00;;;;;;6149286;23;20181;-82
2024/01/16 10:26:07;;;;;;;14.93;6.95;;;0.50;1.00;;;;;;6148425;23;20195;-82
2024/01/16 10:28:35;;;;;;;17.65;7.38;;;0.50;99.90;;;;;;6138787;23;20173;-82
2024/01/16 10:31:05;;;;;;;8.85;7.20;;;0.40;1.00;;;;;;6137496;23;20197;-82
2024/01/16 10:33:33;;;;;;;15.13;8.80;;;0.50;1.00;;;;;;6137405;23;20188;-81
2024/01/16 10:36:10;;;;;;;11.90;7.68;;;0.60;1.00;;;;;;6137709;23;20264;-82
2024/01/16 10:38:39;;;;;;;7.22;6.00;;;0.60;99.90;;;;;;6137163;23;20588;-82
2024/01/16 10:41:07;;;;;;;8.02;6.85;;;0.60;99.90;;;;;;6144381;23;20227;-81
2024/01/16 10:43:34;;;;;;;5.78;5.05;;;0.60;99.90;;;;;;6146330;23;20185;-82
2024/01/16 10:46:12;;;;;;;11.00;6.53;;;0.70;99.90;;;;;;6135619;23;20180;-82
2024/01/16 10:48:41;;;;;;;8.98;6.00;;;0.70;99.90;;;;;;6138651;23;20161;-82
2024/01/16 10:51:11;;;;;;;8.48;4.75;;;0.70;99.90;;;;;;6137312;23;20200;-83
2024/01/16 10:53:43;;;;;;;8.32;5.20;;;0.60;99.90;;;;;;6142105;23;20173;-82
2024/01/16 10:56:12;;;;;;;11.25;6.40;;;0.70;99.90;;;;;;6140286;23;20217;-81
2024/01/16 10:58:41;;;;;;;8.88;5.70;;;0.90;99.90;;;;;;6138456;23;20197;-83
2024/01/16 11:01:12;;;;;;;6.55;4.90;;;0.90;99.90;;;;;;6140981;23;20208;-82
2024/01/16 11:03:44;;;;;;;10.52;4.57;;;0.90;99.90;;;;;;6139078;23;20165;-82
2024/01/16 11:06:13;;;;;;;5.93;4.35;;;1.00;99.90;;;;;;6138220;23;20173;-83
2024/01/16 11:08:42;;;;;;;10.85;5.53;;;1.10;99.90;;;;;;6136304;23;20177;-83
2024/01/16 11:11:09;;;;;;;12.75;6.35;;;1.00;99.80;;;;;;6134638;23;20205;-82
2024/01/16 11:13:37;;;;;;;9.57;5.10;;;1.00;99.90;;;;;;6136360;23;20205;-82
2024/01/16 11:16:06;;;;;;;14.80;6.05;;;1.00;53.30;;;;;;6135217;23;20209;-82
2024/01/16 11:18:36;;;;;;;14.82;5.88;;;0.90;6.50;;;;;;6141709;23;20205;-82
2024/01/16 11:21:05;;;;;;;11.73;5.30;;;0.90;1.00;;;;;;6138868;23;20197;-82
2024/01/16 11:23:34;;;;;;;7.63;4.07;;;0.90;1.00;;;;;;6135685;23;20185;-82
2024/01/16 11:26:25;;;;;;;9.70;4.03;;;1.10;6.50;;;;;;6134800;23;20181;-82
2024/01/16 11:28:53;;;;;;;5.30;3.38;;;1.00;1.00;;;;;;6138096;23;20212;-82
2024/01/16 11:31:33;;;;;;;5.57;4.20;;;1.00;1.00;;;;;;6135423;23;20240;-82
2024/01/16 11:34:00;;;;;;;11.15;4.00;;;0.90;1.00;;;;;;6135954;23;20524;-83
2024/01/16 11:36:50;;;;;;;3.47;2.90;;;0.90;1.00;;;;;;6136614;23;20241;-82
2024/01/16 11:39:21;;;;;;;5.57;3.58;;;1.00;31.40;;;;;;6137411;23;20263;-82
2024/01/16 11:41:52;;;;;;;5.68;4.40;;;1.00;5.00;;;;;;6137257;23;20318;-81
2024/01/16 11:44:39;;;;;;;7.88;5.20;;;0.90;9.20;;;;;;6138818;23;20494;-81
2024/01/16 11:47:08;;;;;;;7.38;4.13;;;1.00;32.40;;;;;;6152367;23;20188;-80
2024/01/16 11:49:35;;;;;;;7.40;3.90;;;0.90;66.40;;;;;;6148917;23;20217;-81
2024/01/16 11:52:02;;;;;;;6.43;4.47;;;0.80;97.40;;;;;;6137350;23;20201;-82
2024/01/16 11:54:29;;;;;;;7.47;5.30;;;0.80;99.90;;;;;;6142010;23;20230;-82
2024/01/16 11:57:33;;;;;;;6.65;4.43;;;0.80;99.90;;;;;;6142807;23;20232;-83
2024/01/16 12:00:01;;;;;;;7.38;5.47;;;0.80;99.90;;;;;;6150255;23;20215;-81
2024/01/16 12:02:39;;;;;;;9.63;4.68;;;0.80;99.90;;;;;;6152444;23;20161;-80
2024/01/16 12:05:06;;;;;;;6.22;5.13;;;0.80;99.90;;;;;;6153228;23;20149;-80
2024/01/16 12:07:44;;;;;;;9.88;4.85;;;0.80;99.90;;;;;;6151289;23;20191;-82
2024/01/16 12:10:11;;;;;;;5.40;4.68;;;0.80;99.90;;;;;;6147390;23;20212;-81
2024/01/16 12:12:39;;;;;;;7.25;5.60;;;0.80;99.90;;;;;;6149849;23;20185;-81
2024/01/16 12:15:07;;;;;;;13.43;5.35;;;0.90;99.90;;;;;;6149007;23;20196;-81
2024/01/16 12:17:34;;;;;;;9.68;5.10;;;1.00;99.90;;;;;;6150527;23;20236;-81
2024/01/16 12:20:01;;;;;;;7.85;5.10;;;1.00;99.90;;;;;;6147446;23;20205;-82
2024/01/16 12:22:28;;;;;;;11.43;6.05;;;1.10;99.90;;;;;;6142118;23;20181;-82
2024/01/16 12:24:58;;;;;;;6.78;5.75;;;1.10;99.90;;;;;;6141022;23;20205;-81
2024/01/16 12:27:25;;;;;;;9.43;5.32;;;1.10;99.90;;;;;;6141166;23;20189;-81
2024/01/16 12:30:08;;;;;;;7.60;4.97;;;1.10;99.90;;;;;;6137991;23;20197;-82
2024/01/16 12:32:35;;;;;;;6.60;5.72;;;1.00;99.90;;;;;;6136573;23;20165;-82
2024/01/16 12:35:01;;;;;;;7.70;6.35;;;1.00;99.90;;;;;;6135790;23;20188;-82
2024/01/16 12:37:29;;;;;;;7.30;4.93;;;1.00;99.90;;;;;;6136401;23;20310;-82
2024/01/16 12:39:57;;;;;;;9.27;5.63;;;0.90;99.90;;;;;;6134555;23;20201;-82
2024/01/16 12:42:25;;;;;;;16.27;6.93;;;0.90;99.90;;;;;;6134012;23;20212;-83
2024/01/16 12:44:52;;;;;;;14.50;10.05;;;0.90;99.90;;;;;;6133362;23;20560;-82
2024/01/16 12:47:21;;;;;;;12.98;7.22;;;0.90;99.90;;;;;;6132648;23;20265;-82
2024/01/16 12:49:48;;;;;;;14.30;6.95;;;0.90;99.90;;;;;;6133430;23;20235;-80
2024/01/16 12:52:20;;;;;;;12.00;6.80;;;1.00;99.90;;;;;;6134132;23;20184;-82
2024/01/16 12:54:47;;;;;;;9.02;6.13;;;1.00;99.90;;;;;;6140865;23;20652;-82
2024/01/16 12:57:19;;;;;;;8.45;6.00;;;1.00;99.90;;;;;;6134460;23;20335;-81
2024/01/16 12:59:46;;;;;;;9.32;5.75;;;1.00;99.90;;;;;;6133804;23;20187;-81
2024/01/16 13:02:22;;;;;;;7.00;5.03;;;1.00;99.90;;;;;;6133175;23;20673;-82
2024/01/16 13:04:57;;;;;;;14.23;6.30;;;1.00;99.90;;;;;;6133352;23;20165;-82
2024/01/16 13:07:25;;;;;;;7.95;5.10;;;0.90;99.90;;;;;;6134045;23;20223;-81
2024/01/16 13:10:06;;;;;;;14.10;6.22;;;1.10;1.00;;;;;;6135756;23;20228;-81
2024/01/16 13:12:33;;;;;;;6.55;4.80;;;1.00;1.00;;;;;;6138004;23;20165;-83
2024/01/16 13:15:00;;;;;;;8.70;4.88;;;0.90;1.00;;;;;;6135358;23;20183;-80
2024/01/16 13:17:28;;;;;;;8.45;5.72;;;1.00;1.00;;;;;;6135819;23;20240;-82
2024/01/16 13:19:55;;;;;;;11.23;5.15;;;1.10;1.00;;;;;;6133844;23;20578;-81
2024/01/16 13:22:22;;;;;;;5.65;5.15;;;1.10;1.00;;;;;;6134552;23;20253;-83
2024/01/16 13:24:49;;;;;;;9.02;5.32;;;1.20;99.90;;;;;;6134413;23;20260;-81
2024/01/16 13:27:15;;;;;;;5.70;5.07;;;1.20;99.90;;;;;;6134583;23;20205;-82
2024/01/16 13:29:44;;;;;;;9.45;5.88;;;1.30;99.90;;;;;;6134090;23;20177;-82
2024/01/16 13:32:11;;;;;;;8.15;4.85;;;1.40;99.90;;;;;;6133967;23;20178;-82
2024/01/16 13:34:42;;;;;;;7.00;6.20;;;1.40;99.90;;;;;;6134152;23;20201;-82
2024/01/16 13:37:09;;;;;;;5.78;4.13;;;1.50;99.90;;;;;;6133680;23;20165;-82
2024/01/16 13:39:38;;;;;;;8.30;4.82;;;1.50;99.90;;;;;;6133501;23;20279;-82
2024/01/16 13:42:07;;;;;;;5.00;4.15;;;1.40;99.90;;;;;;6133254;23;20189;-81
2024/01/16 13:44:33;;;;;;;6.13;4.70;;;1.40;99.90;;;;;;6138153;23;20181;-83
2024/01/16 13:47:00;;;;;;;5.82;3.85;;;1.40;99.90;;;;;;6140179;23;20237;-81
2024/01/16 13:49:27;;;;;;;11.73;4.05;;;1.40;31.50;;;;;;6134945;23;20208;-83
2024/01/16 13:51:55;;;;;;;6.90;4.85;;;1.40;2.20;;;;;;6133981;23;20238;-81
2024/01/16 13:54:22;;;;;;;5.03;4.22;;;1.40;19.10;;;;;;6133213;23;20216;-82
2024/01/16 13:56:49;;;;;;;7.78;5.50;;;1.40;34.70;;;;;;6134920;23;20181;-81
2024/01/16 13:59:16;;;;;;;8.48;4.35;;;1.40;1.00;;;;;;6149387;23;20197;-81
2024/01/16 14:01:44;;;;;;;8.82;4.80;;;1.50;1.00;;;;;;6134610;23;20232;-81
2024/01/16 14:04:11;;;;;;;10.35;4.70;;;1.30;1.00;;;;;;6144578;23;20241;-82
2024/01/16 14:06:38;;;;;;;4.40;3.33;;;1.30;24.60;;;;;;6134964;23;20233;-82
2024/01/16 14:09:09;;;;;;;5.35;3.90;;;1.30;1.00;;;;;;6134816;23;20667;-82
2024/01/16 14:11:37;;;;;;;7.75;4.22;;;1.20;93.30;;;;;;6139640;23;20208;-81
2024/01/16 14:14:05;;;;;;;7.13;4.75;;;1.30;99.90;;;;;;6146352;23;20632;-81
2024/01/16 14:16:31;;;;;;;6.18;3.92;;;1.30;96.90;;;;;;6144948;23;20181;-81
2024/01/16 14:18:59;;;;;;;5.90;4.10;;;1.20;40.30;;;;;;6146117;23;20176;-81
2024/01/16 14:21:25;;;;;;;8.10;4.22;;;1.30;44.30;;;;;;6141572;23;20227;-81
2024/01/16 14:23:52;;;;;;;5.70;3.40;;;1.20;1.00;;;;;;6141419;23;20188;-82
2024/01/16 14:26:21;;;;;;;4.20;3.80;;;1.30;1.00;;;;;;6144349;23;20208;-82